Time;durP1;ratioP1;P1;durP2;ratioP2;P2;SDS_P1;SDS_P2;PMS_P1;PMS_P2;Temp;Humidity;BMP_temperature;BMP_pressure;BME280_temperature;BME280_humidity;BME280_pressure;Samples;Min_cycle;Max_cycle;Signal;HPM_P1;HPM_P2
2021/11/08 00:00:40;;;;;;;0.00;0.00;;;;;;;;;;5007052;28;20290;-75
2021/11/08 00:03:11;;;;;;;0.00;0.00;;;;;;;;;;5010783;28;20300;-75
2021/11/08 00:05:41;;;;;;;0.00;0.00;;;;;;;;;;5013427;28;20209;-75
2021/11/08 00:08:09;;;;;;;0.00;0.00;;;;;;;;;;5011493;28;20239;-74
2021/11/08 00:10:38;;;;;;;0.00;0.00;;;;;;;;;;5013232;28;20239;-74
2021/11/08 00:13:06;;;;;;;0.00;0.00;;;;;;;;;;5013248;28;20343;-72
2021/11/08 00:15:40;;;;;;;0.00;0.00;;;;;;;;;;5013015;28;20240;-76
2021/11/08 00:18:13;;;;;;;0.00;0.00;;;;;;;;;;5013012;28;20213;-75
2021/11/08 00:20:44;;;;;;;0.00;0.00;;;;;;;;;;5014582;28;20235;-75
2021/11/08 00:23:11;;;;;;;0.00;0.00;;;;;;;;;;5010777;28;20300;-74
2021/11/08 00:25:41;;;;;;;0.00;0.00;;;;;;;;;;5009767;28;20201;-74
2021/11/08 00:28:08;;;;;;;0.00;0.00;;;;;;;;;;5009570;28;20245;-75
2021/11/08 00:30:36;;;;;;;0.00;0.00;;;;;;;;;;5012192;28;20550;-74
2021/11/08 00:33:04;;;;;;;0.00;0.00;;;;;;;;;;5010488;28;20401;-75
2021/11/08 00:35:33;;;;;;;0.00;0.00;;;;;;;;;;5014850;28;20205;-74
2021/11/08 00:38:01;;;;;;;0.00;0.00;;;;;;;;;;5010399;28;20282;-74
2021/11/08 00:40:28;;;;;;;0.00;0.00;;;;;;;;;;5008364;28;20665;-74
2021/11/08 00:42:56;;;;;;;0.00;0.00;;;;;;;;;;5010668;28;20216;-75
2021/11/08 00:45:23;;;;;;;0.00;0.00;;;;;;;;;;5009945;28;20228;-75
2021/11/08 00:47:51;;;;;;;0.00;0.00;;;;;;;;;;5010917;28;20315;-75
2021/11/08 00:50:18;;;;;;;0.00;0.00;;;;;;;;;;5012380;28;20212;-75
2021/11/08 00:52:48;;;;;;;0.00;0.00;;;;;;;;;;5013131;28;20209;-75
2021/11/08 00:55:16;;;;;;;0.00;0.00;;;;;;;;;;5012775;28;20205;-75
2021/11/08 00:57:47;;;;;;;0.00;0.00;;;;;;;;;;5010552;28;20208;-76
2021/11/08 01:00:16;;;;;;;0.00;0.00;;;;;;;;;;5013628;28;20209;-74
2021/11/08 01:02:44;;;;;;;0.00;0.00;;;;;;;;;;5014487;28;20237;-75
2021/11/08 01:05:13;;;;;;;0.00;0.00;;;;;;;;;;5011158;28;20236;-74
2021/11/08 01:07:40;;;;;;;0.00;0.00;;;;;;;;;;5015858;28;20728;-75
2021/11/08 01:10:10;;;;;;;0.00;0.00;;;;;;;;;;5016186;28;20196;-75
2021/11/08 01:12:38;;;;;;;0.00;0.00;;;;;;;;;;5014799;28;20210;-75
2021/11/08 01:15:07;;;;;;;0.00;0.00;;;;;;;;;;5011937;28;20211;-75
2021/11/08 01:17:34;;;;;;;0.00;0.00;;;;;;;;;;5016377;28;20255;-75
2021/11/08 01:20:02;;;;;;;0.00;0.00;;;;;;;;;;5017272;28;20201;-76
2021/11/08 01:22:30;;;;;;;0.00;0.00;;;;;;;;;;5015298;28;20311;-75
2021/11/08 01:24:58;;;;;;;0.00;0.00;;;;;;;;;;5013860;28;20205;-74
2021/11/08 01:27:33;;;;;;;0.00;0.00;;;;;;;;;;5011825;28;20290;-75
2021/11/08 01:30:00;;;;;;;0.00;0.00;;;;;;;;;;5017206;28;20204;-74
2021/11/08 01:32:28;;;;;;;0.00;0.00;;;;;;;;;;5014724;28;20201;-75
2021/11/08 01:34:56;;;;;;;0.00;0.00;;;;;;;;;;5013262;28;20626;-75
2021/11/08 01:37:23;;;;;;;0.00;0.00;;;;;;;;;;5014217;28;20205;-75
2021/11/08 01:39:51;;;;;;;0.00;0.00;;;;;;;;;;5014030;28;20201;-74
2021/11/08 01:42:19;;;;;;;0.00;0.00;;;;;;;;;;5014487;28;20223;-75
2021/11/08 01:44:48;;;;;;;0.00;0.00;;;;;;;;;;5011585;28;20541;-75
2021/11/08 01:47:16;;;;;;;0.00;0.00;;;;;;;;;;5014245;28;20228;-74
2021/11/08 01:49:43;;;;;;;0.00;0.00;;;;;;;;;;5017177;28;20197;-75
2021/11/08 01:52:13;;;;;;;0.00;0.00;;;;;;;;;;5012049;28;20601;-74
2021/11/08 01:54:40;;;;;;;0.00;0.00;;;;;;;;;;5013429;28;20646;-75
2021/11/08 01:57:08;;;;;;;0.00;0.00;;;;;;;;;;5015302;28;20884;-74
2021/11/08 01:59:36;;;;;;;0.00;0.00;;;;;;;;;;5018464;28;20214;-74
2021/11/08 02:02:05;;;;;;;0.00;0.00;;;;;;;;;;5016511;28;20223;-74
2021/11/08 02:04:32;;;;;;;0.00;0.00;;;;;;;;;;5014217;28;20207;-75
2021/11/08 02:07:00;;;;;;;0.00;0.00;;;;;;;;;;5013151;28;20661;-74
2021/11/08 02:09:28;;;;;;;0.00;0.00;;;;;;;;;;5017180;28;20197;-74
2021/11/08 02:11:56;;;;;;;0.00;0.00;;;;;;;;;;5014862;28;20205;-74
2021/11/08 02:14:23;;;;;;;0.00;0.00;;;;;;;;;;5008477;28;20256;-76
2021/11/08 02:16:51;;;;;;;0.00;0.00;;;;;;;;;;5014001;28;20228;-74
2021/11/08 02:19:20;;;;;;;0.00;0.00;;;;;;;;;;5016209;28;20213;-75
2021/11/08 02:21:50;;;;;;;0.00;0.00;;;;;;;;;;5011760;28;20200;-74
2021/11/08 02:24:21;;;;;;;0.00;0.00;;;;;;;;;;5013303;28;20242;-75
2021/11/08 02:26:48;;;;;;;0.00;0.00;;;;;;;;;;5012904;28;20291;-74
2021/11/08 02:29:16;;;;;;;0.00;0.00;;;;;;;;;;5012799;28;20311;-75
2021/11/08 02:31:44;;;;;;;0.00;0.00;;;;;;;;;;5015274;28;20205;-75
2021/11/08 02:34:12;;;;;;;0.00;0.00;;;;;;;;;;5007980;28;20376;-76
2021/11/08 02:36:42;;;;;;;0.00;0.00;;;;;;;;;;5012551;28;20200;-75
2021/11/08 02:39:16;;;;;;;0.00;0.00;;;;;;;;;;5015895;28;20283;-75
2021/11/08 02:41:43;;;;;;;0.00;0.00;;;;;;;;;;5010999;28;20213;-74
2021/11/08 02:44:11;;;;;;;0.00;0.00;;;;;;;;;;5014824;28;20556;-75
2021/11/08 02:46:40;;;;;;;0.00;0.00;;;;;;;;;;5015166;28;20197;-74
2021/11/08 02:49:10;;;;;;;0.00;0.00;;;;;;;;;;5017474;28;20233;-74
2021/11/08 02:51:43;;;;;;;0.00;0.00;;;;;;;;;;5012505;28;20566;-75
2021/11/08 02:54:15;;;;;;;0.00;0.00;;;;;;;;;;5013073;28;20212;-75
2021/11/08 02:56:43;;;;;;;0.00;0.00;;;;;;;;;;5016785;28;20535;-75
2021/11/08 02:59:10;;;;;;;0.00;0.00;;;;;;;;;;5013817;28;20588;-74
2021/11/08 03:01:38;;;;;;;0.00;0.00;;;;;;;;;;5014096;28;20287;-74
2021/11/08 03:04:13;;;;;;;0.00;0.00;;;;;;;;;;5015776;28;20653;-75
2021/11/08 03:06:40;;;;;;;0.00;0.00;;;;;;;;;;5017426;28;20196;-75
2021/11/08 03:09:09;;;;;;;0.00;0.00;;;;;;;;;;5015845;28;20232;-75
2021/11/08 03:11:38;;;;;;;0.00;0.00;;;;;;;;;;5013802;28;20208;-73
2021/11/08 03:14:06;;;;;;;0.00;0.00;;;;;;;;;;5010338;28;20208;-75
2021/11/08 03:16:40;;;;;;;0.00;0.00;;;;;;;;;;5015009;28;20215;-75
2021/11/08 03:19:16;;;;;;;0.00;0.00;;;;;;;;;;5014157;28;20211;-75
2021/11/08 03:21:43;;;;;;;0.00;0.00;;;;;;;;;;5012404;28;20661;-76
2021/11/08 03:24:14;;;;;;;0.00;0.00;;;;;;;;;;5012278;28;20217;-76
2021/11/08 03:26:46;;;;;;;0.00;0.00;;;;;;;;;;5012212;28;20250;-74
2021/11/08 03:29:14;;;;;;;0.00;0.00;;;;;;;;;;5013927;28;20314;-75
2021/11/08 03:31:44;;;;;;;0.00;0.00;;;;;;;;;;5014529;28;20777;-76
2021/11/08 03:34:13;;;;;;;0.00;0.00;;;;;;;;;;5010600;28;20201;-74
2021/11/08 03:36:40;;;;;;;0.00;0.00;;;;;;;;;;5015590;28;20211;-76
2021/11/08 03:39:08;;;;;;;0.00;0.00;;;;;;;;;;5014312;28;20208;-76
2021/11/08 03:41:36;;;;;;;0.00;0.00;;;;;;;;;;5013726;28;20209;-74
2021/11/08 03:44:05;;;;;;;0.00;0.00;;;;;;;;;;5013285;28;20201;-75
2021/11/08 03:46:32;;;;;;;0.00;0.00;;;;;;;;;;5014530;28;20218;-75
2021/11/08 03:49:00;;;;;;;0.00;0.00;;;;;;;;;;5013221;28;20224;-74
2021/11/08 03:51:27;;;;;;;0.00;0.00;;;;;;;;;;5013910;28;20212;-74
2021/11/08 03:53:55;;;;;;;0.00;0.00;;;;;;;;;;5013252;28;20669;-74
2021/11/08 03:56:22;;;;;;;0.00;0.00;;;;;;;;;;5014648;28;20212;-74
2021/11/08 03:58:50;;;;;;;0.00;0.00;;;;;;;;;;5011114;28;20197;-75
2021/11/08 04:01:19;;;;;;;0.00;0.00;;;;;;;;;;5013325;28;20318;-73
2021/11/08 04:03:46;;;;;;;0.00;0.00;;;;;;;;;;5014023;28;20215;-75
2021/11/08 04:06:14;;;;;;;0.00;0.00;;;;;;;;;;5014941;28;20565;-74
2021/11/08 04:08:41;;;;;;;0.00;0.00;;;;;;;;;;5010356;28;20319;-73
2021/11/08 04:11:09;;;;;;;0.00;0.00;;;;;;;;;;5013642;28;20219;-74
2021/11/08 04:13:40;;;;;;;0.00;0.00;;;;;;;;;;5014801;28;20576;-75
2021/11/08 04:16:12;;;;;;;0.00;0.00;;;;;;;;;;5014558;28;20205;-75
2021/11/08 04:18:47;;;;;;;0.00;0.00;;;;;;;;;;5013925;28;20661;-74
2021/11/08 04:21:15;;;;;;;0.00;0.00;;;;;;;;;;5010399;28;20208;-74
2021/11/08 04:23:43;;;;;;;0.00;0.00;;;;;;;;;;5011766;28;20205;-76
2021/11/08 04:26:12;;;;;;;0.00;0.00;;;;;;;;;;5014615;28;20205;-74
2021/11/08 04:28:39;;;;;;;0.00;0.00;;;;;;;;;;5007093;28;20229;-74
2021/11/08 04:31:08;;;;;;;0.00;0.00;;;;;;;;;;4999869;28;20666;-74
2021/11/08 04:33:42;;;;;;;0.00;0.00;;;;;;;;;;4999647;28;20197;-74
2021/11/08 04:36:39;;;;;;;0.00;0.00;;;;;;;;;;5003789;28;20220;-74
2021/11/08 04:39:16;;;;;;;0.00;0.00;;;;;;;;;;5003610;28;20213;-73
2021/11/08 04:41:50;;;;;;;0.00;0.00;;;;;;;;;;5005880;28;20220;-76
2021/11/08 04:49:57;;;;;;;0.00;0.00;;;;;;;;;;4990635;28;20235;-74
2021/11/08 04:52:39;;;;;;;0.00;0.00;;;;;;;;;;5002721;28;20205;-76
2021/11/08 04:55:12;;;;;;;0.00;0.00;;;;;;;;;;5007091;28;20209;-74
2021/11/08 05:22:39;;;;;;;0.00;0.00;;;;;;;;;;5001325;28;20278;-74
2021/11/08 05:28:29;;;;;;;0.00;0.00;;;;;;;;;;4999389;28;20872;-72
2021/11/08 05:30:57;;;;;;;0.00;0.00;;;;;;;;;;5018512;28;20196;-74
2021/11/08 05:33:24;;;;;;;0.33;0.33;;;;;;;;;;5014544;28;20204;-74
2021/11/08 05:35:52;;;;;;;0.00;0.00;;;;;;;;;;5015427;28;20205;-74
2021/11/08 05:38:19;;;;;;;0.00;0.00;;;;;;;;;;5006508;28;20287;-74
2021/11/08 05:40:48;;;;;;;0.00;0.00;;;;;;;;;;5002469;28;20204;-74
2021/11/08 05:43:15;;;;;;;0.00;0.00;;;;;;;;;;5002248;28;20209;-74
2021/11/08 05:45:44;;;;;;;0.00;0.00;;;;;;;;;;5003972;28;20232;-74
2021/11/08 05:48:11;;;;;;;0.00;0.00;;;;;;;;;;5003667;28;20208;-74
2021/11/08 05:50:39;;;;;;;0.00;0.00;;;;;;;;;;5002953;28;20653;-72
2021/11/08 05:53:08;;;;;;;0.00;0.00;;;;;;;;;;5001553;28;20217;-74
2021/11/08 05:55:39;;;;;;;0.00;0.00;;;;;;;;;;5002346;28;20820;-73
2021/11/08 05:58:20;;;;;;;0.00;0.00;;;;;;;;;;5004076;28;20280;-73
2021/11/08 06:50:46;;;;;;;0.00;0.00;;;;;;;;;;4964777;28;20283;-74
2021/11/08 06:53:18;;;;;;;0.00;0.00;;;;;;;;;;5004735;28;20205;-73
2021/11/08 06:55:49;;;;;;;0.00;0.00;;;;;;;;;;5006043;28;20209;-74
2021/11/08 06:58:18;;;;;;;0.00;0.00;;;;;;;;;;5003483;28;20192;-73
2021/11/08 07:00:45;;;;;;;0.10;0.10;;;;;;;;;;5001061;28;20805;-74
2021/11/08 07:03:15;;;;;;;0.00;0.00;;;;;;;;;;5000513;28;20251;-74
2021/11/08 07:05:42;;;;;;;0.00;0.00;;;;;;;;;;5001520;28;20696;-73
2021/11/08 07:08:10;;;;;;;0.00;0.00;;;;;;;;;;5013563;28;20898;-75
2021/11/08 07:10:38;;;;;;;0.00;0.00;;;;;;;;;;5011700;28;20221;-74
2021/11/08 07:13:06;;;;;;;0.00;0.00;;;;;;;;;;5014934;28;20204;-74
2021/11/08 07:15:34;;;;;;;0.00;0.00;;;;;;;;;;5011660;28;20609;-74
2021/11/08 07:18:01;;;;;;;0.00;0.00;;;;;;;;;;5015892;28;20969;-73
2021/11/08 07:20:31;;;;;;;0.00;0.00;;;;;;;;;;5011321;28;20468;-74
2021/11/08 07:22:59;;;;;;;0.00;0.00;;;;;;;;;;5014817;28;20216;-76
2021/11/08 07:25:27;;;;;;;0.00;0.00;;;;;;;;;;5013329;28;20205;-72
2021/11/08 07:27:54;;;;;;;0.00;0.00;;;;;;;;;;4996115;28;20209;-71
2021/11/08 07:30:23;;;;;;;0.00;0.00;;;;;;;;;;4998678;28;20228;-72
2021/11/08 07:32:51;;;;;;;0.00;0.00;;;;;;;;;;4994788;28;20657;-72
2021/11/08 07:35:18;;;;;;;0.00;0.00;;;;;;;;;;5001864;28;20792;-73
2021/11/08 07:37:47;;;;;;;0.00;0.00;;;;;;;;;;5000133;28;21111;-73
2021/11/08 07:40:14;;;;;;;0.00;0.00;;;;;;;;;;4999950;28;20201;-71
2021/11/08 07:42:42;;;;;;;1.07;1.03;;;;;;;;;;4993304;28;20581;-71
2021/11/08 07:45:10;;;;;;;0.00;0.00;;;;;;;;;;4994743;28;20290;-71
2021/11/08 07:47:38;;;;;;;0.00;0.00;;;;;;;;;;4995057;28;20212;-71
2021/11/08 07:50:06;;;;;;;0.00;0.00;;;;;;;;;;4991576;28;20244;-73
2021/11/08 07:52:33;;;;;;;0.00;0.00;;;;;;;;;;4995605;28;20667;-72
2021/11/08 07:55:02;;;;;;;0.33;0.33;;;;;;;;;;4999170;28;20197;-71
2021/11/08 07:57:30;;;;;;;0.00;0.00;;;;;;;;;;4993958;28;20200;-74
2021/11/08 07:59:57;;;;;;;0.00;0.00;;;;;;;;;;4998203;28;20209;-71
2021/11/08 08:02:24;;;;;;;0.00;0.00;;;;;;;;;;4995937;28;20240;-75
2021/11/08 08:04:52;;;;;;;0.00;0.00;;;;;;;;;;4991617;28;20220;-73
2021/11/08 08:07:19;;;;;;;0.00;0.00;;;;;;;;;;4990178;28;20207;-70
2021/11/08 08:09:47;;;;;;;0.00;0.00;;;;;;;;;;4988730;28;20259;-69
2021/11/08 08:12:15;;;;;;;0.00;0.00;;;;;;;;;;4995012;28;20661;-72
2021/11/08 08:14:43;;;;;;;0.00;0.00;;;;;;;;;;4991691;28;20200;-74
2021/11/08 08:17:10;;;;;;;0.00;0.00;;;;;;;;;;4992739;28;20212;-73
2021/11/08 08:19:38;;;;;;;0.00;0.00;;;;;;;;;;4996326;28;20209;-73
2021/11/08 08:22:06;;;;;;;0.00;0.00;;;;;;;;;;4998321;28;20209;-73
2021/11/08 08:24:33;;;;;;;0.00;0.00;;;;;;;;;;4996460;28;20232;-73
2021/11/08 08:27:04;;;;;;;0.00;0.00;;;;;;;;;;4996137;28;20215;-74
2021/11/08 08:29:32;;;;;;;0.00;0.00;;;;;;;;;;4991363;28;20251;-73
2021/11/08 08:32:00;;;;;;;0.00;0.00;;;;;;;;;;4986878;28;20703;-72
2021/11/08 08:34:29;;;;;;;0.00;0.00;;;;;;;;;;4994003;28;20212;-74
2021/11/08 08:36:57;;;;;;;0.00;0.00;;;;;;;;;;4998099;28;21035;-73
2021/11/08 08:39:24;;;;;;;0.00;0.00;;;;;;;;;;4998004;28;20232;-73
2021/11/08 08:41:53;;;;;;;0.23;0.10;;;;;;;;;;4994260;28;20210;-73
2021/11/08 08:44:20;;;;;;;0.00;0.00;;;;;;;;;;4995950;28;20205;-74
2021/11/08 08:46:50;;;;;;;0.00;0.00;;;;;;;;;;4994877;28;20693;-74
2021/11/08 08:49:19;;;;;;;0.00;0.00;;;;;;;;;;4989475;28;20248;-73
2021/11/08 08:51:46;;;;;;;0.00;0.00;;;;;;;;;;4988904;28;20228;-72
2021/11/08 08:54:14;;;;;;;0.00;0.00;;;;;;;;;;4988058;28;20546;-73
2021/11/08 08:56:41;;;;;;;0.00;0.00;;;;;;;;;;4989330;28;20806;-73
2021/11/08 08:59:08;;;;;;;0.00;0.00;;;;;;;;;;4988571;28;20622;-73
2021/11/08 09:01:36;;;;;;;0.00;0.00;;;;;;;;;;4989530;28;20229;-73
2021/11/08 09:04:05;;;;;;;0.00;0.00;;;;;;;;;;4988047;28;20209;-72
2021/11/08 09:06:32;;;;;;;0.00;0.00;;;;;;;;;;4988166;28;20210;-73
2021/11/08 09:09:00;;;;;;;0.00;0.00;;;;;;;;;;4986524;28;20232;-73
2021/11/08 09:11:27;;;;;;;0.00;0.00;;;;;;;;;;4991429;28;20221;-72
2021/11/08 09:13:58;;;;;;;0.00;0.00;;;;;;;;;;4988768;28;20209;-74
2021/11/08 09:16:25;;;;;;;0.00;0.00;;;;;;;;;;4990778;28;20212;-72
2021/11/08 09:18:53;;;;;;;0.00;0.00;;;;;;;;;;4992178;28;20201;-71
2021/11/08 09:21:23;;;;;;;0.00;0.00;;;;;;;;;;4994610;28;20205;-73
2021/11/08 09:23:51;;;;;;;0.00;0.00;;;;;;;;;;4993631;28;20683;-71
2021/11/08 09:26:19;;;;;;;0.10;0.10;;;;;;;;;;4990683;28;20210;-76
2021/11/08 09:28:48;;;;;;;0.00;0.00;;;;;;;;;;4992136;28;20201;-74
2021/11/08 09:31:16;;;;;;;0.73;0.73;;;;;;;;;;4993003;28;20240;-75
2021/11/08 09:33:43;;;;;;;1.03;0.60;;;;;;;;;;4990088;28;20197;-72
2021/11/08 09:36:12;;;;;;;0.00;0.00;;;;;;;;;;4988738;28;20748;-71
2021/11/08 09:38:48;;;;;;;0.30;0.30;;;;;;;;;;4988918;28;20213;-75
2021/11/08 09:41:17;;;;;;;0.00;0.00;;;;;;;;;;4988909;28;20264;-73
2021/11/08 09:43:45;;;;;;;0.00;0.00;;;;;;;;;;4990311;28;20197;-72
2021/11/08 09:46:13;;;;;;;0.27;0.27;;;;;;;;;;4988932;28;20235;-72
2021/11/08 09:48:42;;;;;;;0.07;0.07;;;;;;;;;;4985536;28;20639;-72
2021/11/08 09:51:10;;;;;;;0.00;0.00;;;;;;;;;;4982224;28;20713;-73
2021/11/08 09:53:37;;;;;;;0.53;0.53;;;;;;;;;;4984273;28;20228;-70
2021/11/08 09:56:07;;;;;;;0.07;0.07;;;;;;;;;;4984271;28;20204;-69
2021/11/08 09:58:35;;;;;;;0.10;0.10;;;;;;;;;;4982732;28;20193;-70
2021/11/08 10:01:08;;;;;;;0.00;0.00;;;;;;;;;;4981738;28;20248;-73
2021/11/08 10:03:37;;;;;;;0.00;0.00;;;;;;;;;;4983363;28;20779;-72
2021/11/08 10:06:05;;;;;;;0.00;0.00;;;;;;;;;;4982873;28;20318;-69
2021/11/08 10:08:34;;;;;;;0.00;0.00;;;;;;;;;;4982870;28;20208;-72
2021/11/08 10:11:02;;;;;;;0.00;0.00;;;;;;;;;;4985584;28;20225;-73
2021/11/08 10:13:32;;;;;;;0.00;0.00;;;;;;;;;;4982815;28;20665;-72
2021/11/08 10:16:00;;;;;;;0.00;0.00;;;;;;;;;;4983145;28;20584;-73
2021/11/08 10:18:28;;;;;;;0.00;0.00;;;;;;;;;;4983193;28;20953;-73
2021/11/08 10:20:57;;;;;;;0.00;0.00;;;;;;;;;;4980525;28;20543;-71
2021/11/08 10:23:26;;;;;;;0.00;0.00;;;;;;;;;;4979570;28;20582;-72
2021/11/08 10:25:54;;;;;;;0.00;0.00;;;;;;;;;;4981727;28;20224;-72
2021/11/08 10:28:23;;;;;;;0.00;0.00;;;;;;;;;;4983071;28;20201;-72
2021/11/08 10:30:57;;;;;;;0.00;0.00;;;;;;;;;;4980821;28;20232;-72
2021/11/08 10:33:29;;;;;;;0.00;0.00;;;;;;;;;;4982786;28;20293;-73
2021/11/08 10:35:59;;;;;;;0.50;0.50;;;;;;;;;;4981153;28;20292;-72
2021/11/08 10:38:28;;;;;;;0.00;0.00;;;;;;;;;;4980375;28;20215;-78
2021/11/08 10:40:59;;;;;;;0.00;0.00;;;;;;;;;;4999012;28;20213;-76
2021/11/08 10:43:28;;;;;;;0.73;0.40;;;;;;;;;;4995025;28;20209;-75
2021/11/08 10:46:00;;;;;;;0.00;0.00;;;;;;;;;;4989506;28;20209;-76
2021/11/08 10:48:30;;;;;;;0.20;0.20;;;;;;;;;;4990674;28;20204;-76
2021/11/08 10:50:58;;;;;;;0.00;0.00;;;;;;;;;;4990688;28;20221;-77
2021/11/08 10:53:29;;;;;;;0.00;0.00;;;;;;;;;;4990329;28;20214;-75
2021/11/08 10:55:57;;;;;;;0.00;0.00;;;;;;;;;;4990582;28;20354;-75
2021/11/08 10:58:24;;;;;;;0.00;0.00;;;;;;;;;;4989915;28;21365;-76
2021/11/08 11:00:54;;;;;;;0.20;0.20;;;;;;;;;;4992753;28;20240;-73
2021/11/08 11:03:24;;;;;;;0.00;0.00;;;;;;;;;;4992525;28;20213;-75
2021/11/08 11:06:02;;;;;;;0.00;0.00;;;;;;;;;;4992013;28;20231;-72
2021/11/08 11:08:30;;;;;;;0.00;0.00;;;;;;;;;;4990180;28;20885;-72
2021/11/08 11:11:07;;;;;;;2.07;1.00;;;;;;;;;;4990954;28;20229;-72
2021/11/08 11:13:38;;;;;;;0.00;0.00;;;;;;;;;;4991982;28;20208;-71
2021/11/08 11:16:05;;;;;;;0.00;0.00;;;;;;;;;;4990922;28;20209;-71
2021/11/08 11:18:36;;;;;;;0.00;0.00;;;;;;;;;;4993222;28;20544;-72
2021/11/08 11:21:19;;;;;;;0.00;0.00;;;;;;;;;;5001128;28;20201;-72
2021/11/08 11:23:50;;;;;;;0.00;0.00;;;;;;;;;;4990545;28;20208;-72
2021/11/08 11:26:20;;;;;;;0.00;0.00;;;;;;;;;;4991147;28;20305;-71
2021/11/08 11:28:50;;;;;;;0.00;0.00;;;;;;;;;;4990377;28;20296;-72
2021/11/08 11:31:20;;;;;;;0.00;0.00;;;;;;;;;;4992565;28;20257;-72
2021/11/08 11:33:49;;;;;;;0.00;0.00;;;;;;;;;;4992688;28;20209;-72
2021/11/08 11:36:18;;;;;;;0.07;0.07;;;;;;;;;;4988990;28;20213;-72
2021/11/08 11:38:48;;;;;;;0.00;0.00;;;;;;;;;;4990939;28;20216;-72
2021/11/08 11:41:18;;;;;;;0.30;0.00;;;;;;;;;;4991067;28;20290;-72
2021/11/08 11:43:47;;;;;;;0.00;0.00;;;;;;;;;;4997523;28;20863;-73
2021/11/08 11:46:18;;;;;;;0.00;0.00;;;;;;;;;;4993067;28;20213;-70
2021/11/08 11:48:46;;;;;;;0.00;0.00;;;;;;;;;;4983095;28;20208;-71
2021/11/08 11:51:17;;;;;;;0.00;0.00;;;;;;;;;;4983776;28;20226;-71
2021/11/08 11:53:45;;;;;;;0.00;0.00;;;;;;;;;;4982387;28;20717;-71
2021/11/08 11:56:13;;;;;;;0.00;0.00;;;;;;;;;;4981195;28;20204;-70
2021/11/08 11:58:41;;;;;;;0.00;0.00;;;;;;;;;;4984869;28;20196;-74
2021/11/08 12:01:10;;;;;;;0.00;0.00;;;;;;;;;;4981789;28;20357;-74
2021/11/08 12:03:37;;;;;;;0.00;0.00;;;;;;;;;;4983501;28;20206;-71
2021/11/08 12:06:05;;;;;;;0.00;0.00;;;;;;;;;;4984357;28;20208;-75
2021/11/08 12:08:37;;;;;;;0.00;0.00;;;;;;;;;;4981025;28;20209;-71
2021/11/08 12:11:06;;;;;;;0.00;0.00;;;;;;;;;;4983032;28;20248;-74
2021/11/08 12:13:36;;;;;;;0.00;0.00;;;;;;;;;;4982153;28;20205;-72
2021/11/08 12:16:12;;;;;;;0.00;0.00;;;;;;;;;;4984232;28;20209;-74
2021/11/08 12:18:40;;;;;;;0.00;0.00;;;;;;;;;;4985536;28;20212;-73
2021/11/08 12:21:11;;;;;;;0.00;0.00;;;;;;;;;;4981004;28;20193;-77
2021/11/08 12:23:40;;;;;;;0.00;0.00;;;;;;;;;;4984684;28;21512;-69
2021/11/08 12:26:17;;;;;;;0.00;0.00;;;;;;;;;;4987694;28;20242;-75
2021/11/08 12:28:45;;;;;;;0.00;0.00;;;;;;;;;;4986545;28;20209;-75
2021/11/08 12:31:12;;;;;;;0.67;0.67;;;;;;;;;;4986352;28;20332;-75
2021/11/08 12:33:42;;;;;;;0.00;0.00;;;;;;;;;;4990304;28;20777;-72
2021/11/08 12:36:19;;;;;;;0.00;0.00;;;;;;;;;;4990264;28;20701;-75
2021/11/08 12:38:54;;;;;;;0.00;0.00;;;;;;;;;;4990706;28;20204;-76
2021/11/08 12:41:25;;;;;;;0.00;0.00;;;;;;;;;;4991737;28;20205;-75
2021/11/08 12:43:56;;;;;;;0.07;0.07;;;;;;;;;;4991319;28;20219;-76
2021/11/08 12:46:26;;;;;;;0.00;0.00;;;;;;;;;;4993087;28;20204;-76
2021/11/08 12:48:54;;;;;;;0.00;0.00;;;;;;;;;;4984158;28;20205;-75
2021/11/08 12:51:23;;;;;;;0.00;0.00;;;;;;;;;;4989276;28;20240;-74
2021/11/08 12:54:02;;;;;;;0.00;0.00;;;;;;;;;;4992549;28;20578;-71
2021/11/08 12:56:32;;;;;;;0.00;0.00;;;;;;;;;;4993827;28;20285;-73
2021/11/08 12:59:00;;;;;;;0.00;0.00;;;;;;;;;;4995322;28;20210;-72
2021/11/08 13:01:41;;;;;;;0.00;0.00;;;;;;;;;;4995311;28;20224;-78
2021/11/08 13:04:11;;;;;;;0.00;0.00;;;;;;;;;;4993418;28;20359;-77
2021/11/08 13:06:39;;;;;;;0.40;0.40;;;;;;;;;;4993778;28;20570;-75
2021/11/08 13:09:09;;;;;;;0.10;0.10;;;;;;;;;;4995296;28;20197;-75
2021/11/08 13:11:44;;;;;;;0.00;0.00;;;;;;;;;;4993014;28;20236;-76
2021/11/08 13:14:22;;;;;;;0.00;0.00;;;;;;;;;;4993273;28;20212;-74
2021/11/08 13:16:51;;;;;;;0.00;0.00;;;;;;;;;;4994506;28;21370;-75
2021/11/08 13:19:19;;;;;;;0.77;0.77;;;;;;;;;;4990913;28;20205;-75
2021/11/08 13:21:47;;;;;;;0.00;0.00;;;;;;;;;;4992195;28;20205;-75
2021/11/08 13:24:16;;;;;;;0.00;0.00;;;;;;;;;;4987585;28;21166;-74
2021/11/08 13:26:46;;;;;;;0.00;0.00;;;;;;;;;;4984280;28;20284;-74
2021/11/08 13:29:17;;;;;;;0.00;0.00;;;;;;;;;;4990789;28;20728;-75
2021/11/08 13:31:45;;;;;;;0.00;0.00;;;;;;;;;;4987385;28;20793;-71
2021/11/08 13:34:13;;;;;;;0.03;0.03;;;;;;;;;;4984511;28;20216;-71
2021/11/08 13:36:41;;;;;;;0.00;0.00;;;;;;;;;;4983844;28;20247;-71
2021/11/08 13:39:09;;;;;;;0.00;0.00;;;;;;;;;;4987226;28;20224;-71
2021/11/08 13:41:38;;;;;;;0.00;0.00;;;;;;;;;;4985152;28;20577;-71
2021/11/08 13:44:06;;;;;;;0.00;0.00;;;;;;;;;;4985782;28;20205;-73
2021/11/08 13:46:35;;;;;;;0.10;0.10;;;;;;;;;;4993339;28;20205;-74
2021/11/08 13:49:03;;;;;;;0.73;0.73;;;;;;;;;;4992944;28;20211;-75
2021/11/08 13:51:31;;;;;;;0.00;0.00;;;;;;;;;;4991312;28;20229;-75
2021/11/08 13:54:00;;;;;;;0.00;0.00;;;;;;;;;;4992920;28;20208;-73
2021/11/08 13:56:32;;;;;;;0.00;0.00;;;;;;;;;;4984242;28;20193;-72
2021/11/08 13:59:01;;;;;;;0.00;0.00;;;;;;;;;;4983667;28;20593;-72
2021/11/08 14:01:30;;;;;;;0.00;0.00;;;;;;;;;;4989040;28;20717;-76
2021/11/08 14:04:01;;;;;;;0.00;0.00;;;;;;;;;;4993552;28;20551;-73
2021/11/08 14:06:30;;;;;;;0.00;0.00;;;;;;;;;;4995580;28;20243;-74
2021/11/08 14:08:58;;;;;;;0.00;0.00;;;;;;;;;;4992256;28;20205;-72
2021/11/08 14:11:26;;;;;;;0.10;0.10;;;;;;;;;;4988378;28;20236;-69
2021/11/08 14:13:54;;;;;;;0.00;0.00;;;;;;;;;;4982453;28;20773;-75
2021/11/08 14:16:23;;;;;;;0.00;0.00;;;;;;;;;;4984467;28;20212;-73
2021/11/08 14:18:54;;;;;;;0.00;0.00;;;;;;;;;;4991313;28;20205;-71
2021/11/08 14:21:21;;;;;;;0.00;0.00;;;;;;;;;;4990814;28;20322;-71
2021/11/08 14:23:49;;;;;;;0.00;0.00;;;;;;;;;;4990010;28;20240;-69
2021/11/08 14:26:18;;;;;;;0.00;0.00;;;;;;;;;;4988819;28;20201;-70
2021/11/08 14:28:46;;;;;;;0.00;0.00;;;;;;;;;;4991133;28;20207;-70
2021/11/08 14:31:24;;;;;;;0.10;0.10;;;;;;;;;;4987376;28;20881;-70
2021/11/08 14:33:53;;;;;;;0.00;0.00;;;;;;;;;;4990165;28;20677;-70
2021/11/08 14:36:21;;;;;;;0.00;0.00;;;;;;;;;;4992525;28;20232;-71
2021/11/08 14:38:58;;;;;;;2.13;2.00;;;;;;;;;;5006222;28;20217;-71
2021/11/08 14:41:32;;;;;;;0.00;0.00;;;;;;;;;;5009327;28;20236;-71
2021/11/08 14:44:01;;;;;;;0.00;0.00;;;;;;;;;;4989911;28;20205;-70
2021/11/08 14:46:36;;;;;;;0.00;0.00;;;;;;;;;;4994817;28;20215;-71
2021/11/08 14:49:16;;;;;;;0.10;0.10;;;;;;;;;;4995387;28;20287;-70
2021/11/08 14:51:43;;;;;;;0.00;0.00;;;;;;;;;;4991664;28;20715;-70
2021/11/08 14:54:11;;;;;;;0.00;0.00;;;;;;;;;;4990649;28;20207;-72
2021/11/08 14:56:39;;;;;;;0.00;0.00;;;;;;;;;;4991532;28;20300;-69
2021/11/08 14:59:08;;;;;;;0.00;0.00;;;;;;;;;;4992739;28;20204;-71
2021/11/08 15:01:38;;;;;;;0.00;0.00;;;;;;;;;;4991472;28;20240;-71
2021/11/08 15:04:07;;;;;;;0.00;0.00;;;;;;;;;;4992052;28;20233;-72
2021/11/08 15:06:38;;;;;;;0.00;0.00;;;;;;;;;;4992810;28;20216;-71
2021/11/08 15:09:08;;;;;;;0.00;0.00;;;;;;;;;;4992625;28;20604;-70
2021/11/08 15:11:37;;;;;;;0.00;0.00;;;;;;;;;;4991481;28;20239;-72
2021/11/08 15:14:05;;;;;;;0.00;0.00;;;;;;;;;;4991462;28;20213;-71
2021/11/08 15:16:44;;;;;;;0.00;0.00;;;;;;;;;;4991630;28;20331;-71
2021/11/08 15:19:12;;;;;;;0.00;0.00;;;;;;;;;;4989983;28;20292;-71
2021/11/08 15:21:39;;;;;;;0.00;0.00;;;;;;;;;;4990895;28;20209;-71
2021/11/08 15:24:08;;;;;;;0.00;0.00;;;;;;;;;;4990776;28;20208;-71
2021/11/08 15:26:36;;;;;;;0.00;0.00;;;;;;;;;;4993962;28;20200;-71
2021/11/08 15:29:11;;;;;;;0.00;0.00;;;;;;;;;;4990778;28;20201;-71
2021/11/08 15:31:39;;;;;;;0.00;0.00;;;;;;;;;;4990369;28;20228;-71
2021/11/08 15:34:13;;;;;;;0.00;0.00;;;;;;;;;;4989953;28;20675;-71
2021/11/08 15:36:41;;;;;;;0.00;0.00;;;;;;;;;;4993598;28;20208;-72
2021/11/08 15:39:10;;;;;;;0.00;0.00;;;;;;;;;;4991054;28;20213;-72
2021/11/08 15:41:39;;;;;;;0.00;0.00;;;;;;;;;;4991710;28;20670;-70
2021/11/08 15:44:07;;;;;;;0.00;0.00;;;;;;;;;;4991631;28;20771;-72
2021/11/08 15:46:36;;;;;;;0.00;0.00;;;;;;;;;;4992104;28;20213;-71
2021/11/08 15:49:08;;;;;;;0.00;0.00;;;;;;;;;;4991059;28;20219;-71
2021/11/08 15:51:40;;;;;;;0.00;0.00;;;;;;;;;;4989242;28;20236;-71
2021/11/08 15:54:09;;;;;;;0.00;0.00;;;;;;;;;;4991866;28;20211;-71
2021/11/08 15:56:38;;;;;;;0.00;0.00;;;;;;;;;;4992826;28;20207;-71
2021/11/08 15:59:08;;;;;;;0.00;0.00;;;;;;;;;;4994335;28;20212;-71
2021/11/08 16:01:37;;;;;;;0.00;0.00;;;;;;;;;;4992619;28;20637;-71
2021/11/08 16:04:06;;;;;;;0.00;0.00;;;;;;;;;;4990402;28;20219;-76
2021/11/08 16:06:35;;;;;;;0.00;0.00;;;;;;;;;;5017323;28;20958;-69
2021/11/08 16:09:18;;;;;;;0.00;0.00;;;;;;;;;;5019514;28;20674;-71
2021/11/08 16:11:46;;;;;;;0.00;0.00;;;;;;;;;;5023482;28;20228;-71
2021/11/08 16:14:15;;;;;;;0.00;0.00;;;;;;;;;;5004829;28;20196;-74
2021/11/08 16:16:45;;;;;;;0.00;0.00;;;;;;;;;;5010146;28;20212;-73
2021/11/08 16:19:12;;;;;;;0.00;0.00;;;;;;;;;;4991627;28;20215;-71